Time;durP1;ratioP1;P1;durP2;ratioP2;P2;SDS_P1;SDS_P2;PMS_P1;PMS_P2;Temp;Humidity;BMP_temperature;BMP_pressure;BME280_temperature;BME280_humidity;BME280_pressure;Samples;Min_cycle;Max_cycle;Signal;HPM_P1;HPM_P2
2022/06/01 00:01:05;;;;;;;3.70;3.40;;;16.10;99.90;;;;;;5046673;28;20215;-72
2022/06/01 00:03:34;;;;;;;3.60;3.30;;;16.20;99.90;;;;;;5046849;28;20278;-72
2022/06/01 00:06:05;;;;;;;3.50;3.30;;;16.10;99.90;;;;;;5038907;28;20223;-72
2022/06/01 00:08:32;;;;;;;3.70;3.50;;;16.10;99.90;;;;;;5026581;28;20800;-73
2022/06/01 00:10:59;;;;;;;3.60;3.40;;;16.00;99.90;;;;;;5026650;28;20208;-73
2022/06/01 00:13:27;;;;;;;4.17;3.83;;;15.80;99.90;;;;;;5032589;28;20239;-73
2022/06/01 00:15:54;;;;;;;3.77;3.57;;;15.60;99.90;;;;;;5034376;28;20291;-73
2022/06/01 00:18:22;;;;;;;3.97;3.67;;;15.70;99.90;;;;;;5040021;28;20854;-72
2022/06/01 00:20:49;;;;;;;3.90;3.60;;;15.70;99.90;;;;;;5046614;28;20215;-72
2022/06/01 00:23:17;;;;;;;3.60;3.40;;;15.80;99.90;;;;;;5046241;28;20267;-73
2022/06/01 00:25:44;;;;;;;4.03;3.63;;;15.80;99.90;;;;;;5045935;28;20200;-73
2022/06/01 00:28:10;;;;;;;3.60;3.40;;;15.80;99.90;;;;;;5046482;28;20204;-73
2022/06/01 00:30:38;;;;;;;5.43;3.63;;;15.70;99.90;;;;;;5027411;28;20209;-73
2022/06/01 00:33:05;;;;;;;4.03;3.77;;;15.40;99.90;;;;;;5044237;28;20720;-73
2022/06/01 00:35:32;;;;;;;4.00;3.70;;;15.10;99.90;;;;;;5050672;28;20261;-72
2022/06/01 00:37:58;;;;;;;3.70;3.50;;;15.00;99.90;;;;;;5039435;28;20217;-73
2022/06/01 00:40:28;;;;;;;3.90;3.60;;;15.10;99.90;;;;;;5045439;28;20678;-72
2022/06/01 00:42:58;;;;;;;4.73;3.70;;;14.80;99.90;;;;;;5038500;28;20235;-73
2022/06/01 00:45:27;;;;;;;4.00;3.70;;;15.00;99.90;;;;;;5030193;28;20705;-72
2022/06/01 00:47:54;;;;;;;3.77;3.43;;;15.10;99.90;;;;;;5030512;28;20215;-73
2022/06/01 00:50:24;;;;;;;3.87;3.30;;;15.10;99.90;;;;;;5047556;28;20215;-73
2022/06/01 00:52:56;;;;;;;3.77;3.50;;;15.20;99.90;;;;;;5039201;28;20263;-72
2022/06/01 00:55:28;;;;;;;4.83;3.53;;;15.20;99.90;;;;;;5030008;28;20713;-73
2022/06/01 00:57:59;;;;;;;3.40;3.10;;;15.30;99.90;;;;;;5030177;28;20196;-72
2022/06/01 01:00:28;;;;;;;3.70;3.50;;;15.40;99.90;;;;;;5030391;28;20205;-72
2022/06/01 01:02:57;;;;;;;3.90;3.60;;;15.40;99.90;;;;;;5041828;28;20321;-73
2022/06/01 01:05:25;;;;;;;3.90;3.60;;;15.40;99.90;;;;;;5050014;28;20281;-73
2022/06/01 01:07:53;;;;;;;3.73;3.43;;;15.30;99.90;;;;;;5049775;28;20212;-73
2022/06/01 01:10:20;;;;;;;3.60;3.30;;;15.30;99.90;;;;;;5049656;28;20666;-73
2022/06/01 01:12:59;;;;;;;3.13;2.93;;;15.20;99.90;;;;;;5040315;28;20699;-73
2022/06/01 01:15:30;;;;;;;3.37;3.17;;;14.90;99.90;;;;;;5030036;28;20205;-72
2022/06/01 01:17:58;;;;;;;3.83;3.40;;;14.70;99.90;;;;;;5039905;28;20197;-73
2022/06/01 01:20:26;;;;;;;4.20;3.80;;;14.50;99.90;;;;;;5049749;28;20208;-72
2022/06/01 01:23:05;;;;;;;4.53;3.80;;;14.40;99.90;;;;;;5038407;28;20770;-72
2022/06/01 01:25:38;;;;;;;3.80;3.50;;;14.20;99.90;;;;;;5046403;28;20196;-73
2022/06/01 01:28:08;;;;;;;4.17;3.30;;;14.30;99.90;;;;;;5049930;28;20193;-73
2022/06/01 01:30:53;;;;;;;3.70;3.30;;;14.20;99.90;;;;;;5049860;28;20570;-72
2022/06/01 01:33:22;;;;;;;3.13;2.93;;;14.40;99.90;;;;;;5049231;28;20853;-73
2022/06/01 01:35:52;;;;;;;3.10;2.90;;;14.40;99.90;;;;;;5049024;28;20685;-72
2022/06/01 01:38:29;;;;;;;3.30;3.00;;;14.60;99.90;;;;;;5049000;28;20702;-73
2022/06/01 01:41:08;;;;;;;3.43;3.23;;;14.80;99.90;;;;;;5049132;28;20243;-73
2022/06/01 01:43:40;;;;;;;4.00;3.07;;;14.80;99.90;;;;;;5049372;28;20216;-73
2022/06/01 01:46:07;;;;;;;2.80;2.70;;;14.90;99.90;;;;;;5042245;28;20254;-72
2022/06/01 01:48:36;;;;;;;2.97;2.70;;;15.10;99.90;;;;;;5044955;28;20266;-73
2022/06/01 01:51:06;;;;;;;3.53;3.23;;;15.10;99.90;;;;;;5049277;28;20214;-73
2022/06/01 01:53:34;;;;;;;2.97;2.77;;;15.20;99.90;;;;;;5049161;28;20208;-72
2022/06/01 01:56:17;;;;;;;2.80;2.70;;;15.20;99.90;;;;;;5049375;28;20240;-72
2022/06/01 01:59:02;;;;;;;3.20;2.90;;;15.30;99.90;;;;;;5036660;28;20611;-73
2022/06/01 02:01:40;;;;;;;2.77;2.57;;;15.30;99.90;;;;;;5029691;28;20201;-72
2022/06/01 02:06:03;;;;;;;2.97;2.77;;;15.40;99.90;;;;;;5029266;28;20225;-73
2022/06/01 02:07:05;;;;;;;3.03;2.70;;;15.40;99.90;;;;;;5029003;28;20201;-72
2022/06/01 02:12:41;;;;;;;2.53;2.43;;;15.10;99.90;;;;;;5032244;28;20194;-72
2022/06/01 02:15:08;;;;;;;4.40;3.00;;;15.10;99.90;;;;;;5048665;28;20192;-72
2022/06/01 02:17:38;;;;;;;3.30;3.07;;;14.90;99.90;;;;;;5041724;28;20476;-73
2022/06/01 02:20:10;;;;;;;3.03;2.80;;;14.90;99.90;;;;;;5036190;28;20200;-73
2022/06/01 02:22:38;;;;;;;3.40;3.20;;;14.80;99.90;;;;;;5048715;28;20223;-72
2022/06/01 02:25:05;;;;;;;3.33;3.13;;;14.90;99.90;;;;;;5048060;28;20208;-73
2022/06/01 02:27:34;;;;;;;3.13;2.93;;;15.00;99.90;;;;;;5048381;28;20262;-72
2022/06/01 02:30:07;;;;;;;3.33;3.10;;;15.00;99.90;;;;;;5048087;28;20200;-73
2022/06/01 02:32:35;;;;;;;3.40;3.10;;;15.10;99.90;;;;;;5036077;28;20201;-73
2022/06/01 02:35:05;;;;;;;3.10;2.90;;;14.90;99.90;;;;;;5028547;28;20259;-72
2022/06/01 02:37:34;;;;;;;2.93;2.73;;;14.80;99.90;;;;;;5028425;28;20225;-72
2022/06/01 02:40:04;;;;;;;3.27;3.07;;;14.80;99.90;;;;;;5028145;28;20391;-73
2022/06/01 02:42:31;;;;;;;3.13;2.90;;;14.70;99.90;;;;;;5042258;28;20244;-73
2022/06/01 02:45:01;;;;;;;3.13;2.93;;;14.70;99.90;;;;;;5045085;28;20744;-73
2022/06/01 02:47:30;;;;;;;3.00;2.80;;;14.70;99.90;;;;;;5042179;28;20209;-72
2022/06/01 02:49:58;;;;;;;3.00;2.80;;;14.80;99.90;;;;;;5028250;28;20378;-73
2022/06/01 02:52:25;;;;;;;3.13;2.93;;;14.80;99.90;;;;;;5027818;28;20204;-72
2022/06/01 02:54:52;;;;;;;2.83;2.73;;;15.00;99.90;;;;;;5032675;28;20205;-72
2022/06/01 02:57:19;;;;;;;2.73;2.63;;;15.00;99.90;;;;;;5045242;28;20266;-72
2022/06/01 02:59:47;;;;;;;2.93;2.80;;;15.00;99.90;;;;;;5048086;28;20257;-73
2022/06/01 03:02:15;;;;;;;3.00;2.80;;;15.10;99.90;;;;;;5047934;28;20235;-72
2022/06/01 03:04:43;;;;;;;2.87;2.67;;;15.10;99.90;;;;;;5048033;28;20228;-73
2022/06/01 03:07:11;;;;;;;2.70;2.60;;;15.10;99.90;;;;;;5047620;28;20215;-72
2022/06/01 03:09:37;;;;;;;3.53;3.30;;;15.10;99.90;;;;;;5047123;28;20291;-72
2022/06/01 03:12:07;;;;;;;3.23;3.10;;;15.10;99.90;;;;;;5047761;28;20216;-72
2022/06/01 03:14:36;;;;;;;3.03;2.90;;;15.00;99.90;;;;;;5047869;28;20266;-72
2022/06/01 03:17:02;;;;;;;2.80;2.60;;;15.00;99.90;;;;;;5041837;28;20244;-72
2022/06/01 03:19:31;;;;;;;3.30;2.93;;;15.00;99.90;;;;;;5047108;28;20754;-72
2022/06/01 03:21:58;;;;;;;3.13;2.97;;;14.90;99.90;;;;;;5043773;28;20212;-72
2022/06/01 03:24:25;;;;;;;3.30;3.10;;;15.00;99.90;;;;;;5046993;28;20232;-72
2022/06/01 03:26:51;;;;;;;2.83;2.73;;;15.00;99.90;;;;;;5045535;28;20196;-72
2022/06/01 03:29:18;;;;;;;3.40;3.10;;;14.80;99.90;;;;;;5047268;28;20262;-72
2022/06/01 03:31:45;;;;;;;4.00;3.67;;;14.70;99.90;;;;;;5047411;28;20266;-73
2022/06/01 03:34:11;;;;;;;3.63;3.00;;;14.50;99.90;;;;;;5047359;28;20215;-72
2022/06/01 03:36:41;;;;;;;3.50;3.20;;;14.60;99.90;;;;;;5047629;28;20204;-73
2022/06/01 03:39:07;;;;;;;3.70;3.40;;;14.60;99.90;;;;;;5034109;28;20224;-72
2022/06/01 03:41:34;;;;;;;5.83;3.13;;;14.50;99.90;;;;;;5027206;28;20275;-73
2022/06/01 03:46:45;;;;;;;3.30;3.10;;;14.60;99.90;;;;;;5027355;28;20204;-72
2022/06/01 03:49:12;;;;;;;3.10;3.00;;;14.50;99.90;;;;;;5047114;28;20625;-73
2022/06/01 03:51:40;;;;;;;3.60;3.40;;;14.50;99.90;;;;;;5032252;28;20209;-73
2022/06/01 03:54:07;;;;;;;3.37;3.17;;;14.10;99.90;;;;;;5031034;28;20199;-72
2022/06/01 03:56:33;;;;;;;4.47;3.17;;;14.10;99.90;;;;;;5038698;28;20667;-72
2022/06/01 03:59:00;;;;;;;3.83;3.53;;;14.00;99.90;;;;;;5043293;28;20200;-73
2022/06/01 04:01:27;;;;;;;3.97;3.77;;;13.80;99.90;;;;;;5033453;28;20224;-72
2022/06/01 04:03:53;;;;;;;4.13;3.83;;;13.70;99.90;;;;;;5044942;28;20227;-73
2022/06/01 04:06:20;;;;;;;4.30;3.90;;;13.60;99.90;;;;;;5039318;28;20687;-72
2022/06/01 04:08:48;;;;;;;4.40;4.10;;;13.40;99.90;;;;;;5034695;28;20628;-72
2022/06/01 04:11:15;;;;;;;4.17;3.90;;;13.40;99.90;;;;;;5026766;28;20205;-72
2022/06/01 04:13:41;;;;;;;4.23;4.03;;;13.30;99.90;;;;;;5033303;28;20209;-72
2022/06/01 04:16:08;;;;;;;3.53;3.33;;;13.40;99.90;;;;;;5026615;28;20208;-72
2022/06/01 04:18:34;;;;;;;3.80;3.50;;;13.50;99.90;;;;;;5042107;28;20728;-73
2022/06/01 04:21:04;;;;;;;4.20;3.83;;;13.40;99.90;;;;;;5037995;28;20209;-72
2022/06/01 04:23:31;;;;;;;3.90;3.60;;;13.30;99.90;;;;;;5032838;28;20219;-72
2022/06/01 04:25:59;;;;;;;4.07;3.77;;;13.30;99.90;;;;;;5046581;28;20254;-72
2022/06/01 04:28:26;;;;;;;4.10;3.80;;;13.40;99.90;;;;;;5046804;28;20595;-72
2022/06/01 04:30:52;;;;;;;3.60;3.40;;;13.40;99.90;;;;;;5046544;28;20663;-72
2022/06/01 04:33:19;;;;;;;4.00;3.80;;;13.30;99.90;;;;;;5045795;28;20208;-72
2022/06/01 04:35:46;;;;;;;3.90;3.70;;;13.40;99.90;;;;;;5046508;28;20207;-72
2022/06/01 04:38:18;;;;;;;3.70;3.50;;;13.40;99.90;;;;;;5045701;28;20662;-72
2022/06/01 04:40:48;;;;;;;4.10;3.80;;;13.40;99.90;;;;;;5046251;28;20231;-73
2022/06/01 04:43:18;;;;;;;3.77;3.53;;;13.40;99.90;;;;;;5046279;28;20305;-73
2022/06/01 04:45:44;;;;;;;3.97;3.73;;;13.40;99.90;;;;;;5046183;28;20320;-72
2022/06/01 04:48:11;;;;;;;4.13;3.93;;;13.40;99.90;;;;;;5030617;28;20270;-72
2022/06/01 04:50:42;;;;;;;3.50;3.30;;;13.30;99.90;;;;;;5026379;28;20723;-72
2022/06/01 04:53:09;;;;;;;3.90;3.60;;;13.50;99.90;;;;;;5032168;28;20566;-72
2022/06/01 04:55:35;;;;;;;3.77;3.47;;;13.40;99.90;;;;;;5046359;28;20211;-72
2022/06/01 04:58:02;;;;;;;3.80;3.60;;;13.40;99.90;;;;;;5046243;28;20208;-72
2022/06/01 05:00:30;;;;;;;3.93;3.73;;;13.40;99.90;;;;;;5036932;28;20608;-72
2022/06/01 05:02:57;;;;;;;4.10;3.80;;;13.30;99.90;;;;;;5026164;28;20208;-72
2022/06/01 05:05:23;;;;;;;6.30;3.87;;;13.30;99.90;;;;;;5026127;28;20328;-72
2022/06/01 05:07:50;;;;;;;4.07;3.87;;;13.30;99.90;;;;;;5027480;28;20201;-72
2022/06/01 05:10:17;;;;;;;3.80;3.60;;;13.50;99.90;;;;;;5040519;28;20212;-72
2022/06/01 05:12:46;;;;;;;3.50;3.30;;;13.60;99.90;;;;;;5041165;28;20205;-72
2022/06/01 05:15:13;;;;;;;3.10;2.93;;;13.70;99.90;;;;;;5026221;28;20216;-72
2022/06/01 05:17:41;;;;;;;3.10;3.00;;;13.80;99.90;;;;;;5035722;28;20655;-72
2022/06/01 05:20:09;;;;;;;4.50;3.50;;;13.80;99.90;;;;;;5049400;28;20208;-72
2022/06/01 05:22:38;;;;;;;4.20;3.80;;;13.70;99.90;;;;;;5049826;28;20204;-73
2022/06/01 05:25:06;;;;;;;3.77;3.57;;;13.80;99.90;;;;;;5049385;28;20239;-72
2022/06/01 05:27:33;;;;;;;3.90;3.70;;;13.90;99.90;;;;;;5050021;28;20270;-73
2022/06/01 05:30:00;;;;;;;4.03;3.83;;;13.70;99.90;;;;;;5049669;28;20615;-72
2022/06/01 05:32:28;;;;;;;4.27;3.50;;;13.70;99.90;;;;;;5048478;28;20230;-72
2022/06/01 05:34:56;;;;;;;3.80;3.60;;;13.60;99.90;;;;;;5049588;28;20204;-72
2022/06/01 05:37:22;;;;;;;4.00;3.80;;;13.70;99.90;;;;;;5046187;28;20228;-73
2022/06/01 05:39:49;;;;;;;3.53;3.33;;;13.50;99.90;;;;;;5029551;28;20302;-73
2022/06/01 05:42:16;;;;;;;3.47;3.27;;;13.70;99.90;;;;;;5029268;28;20233;-73
2022/06/01 05:44:42;;;;;;;3.80;3.60;;;13.80;99.90;;;;;;5048066;28;20232;-73
2022/06/01 05:47:09;;;;;;;3.87;3.57;;;13.80;99.90;;;;;;5049093;28;20721;-72
2022/06/01 05:49:36;;;;;;;3.60;3.30;;;14.00;99.90;;;;;;5049274;28;20939;-73
2022/06/01 05:52:04;;;;;;;3.40;3.20;;;14.10;99.90;;;;;;5046492;28;20206;-72
2022/06/01 05:54:31;;;;;;;3.53;3.23;;;14.20;99.90;;;;;;5029247;28;20251;-72
2022/06/01 05:56:57;;;;;;;3.27;3.07;;;14.20;99.90;;;;;;5029375;28;20275;-73
2022/06/01 05:59:24;;;;;;;3.03;2.93;;;14.10;99.90;;;;;;5029501;28;20216;-72
2022/06/01 06:01:51;;;;;;;3.07;2.97;;;14.10;99.90;;;;;;5028971;28;20729;-72
2022/06/01 06:04:17;;;;;;;3.20;3.00;;;14.10;99.90;;;;;;5029188;28;20232;-73
2022/06/01 06:06:44;;;;;;;3.10;2.80;;;14.10;99.90;;;;;;5045235;28;20208;-72
2022/06/01 06:09:12;;;;;;;3.20;3.00;;;14.00;99.90;;;;;;5048724;28;20207;-73
2022/06/01 06:11:40;;;;;;;2.60;2.50;;;14.00;99.90;;;;;;5048567;28;20861;-72
2022/06/01 06:14:08;;;;;;;2.67;2.57;;;14.10;99.90;;;;;;5048921;28;20208;-73
2022/06/01 06:16:36;;;;;;;2.97;2.70;;;14.30;99.90;;;;;;5040751;28;20246;-73
2022/06/01 06:19:04;;;;;;;2.70;2.60;;;14.20;99.90;;;;;;5048722;28;20293;-72
2022/06/01 06:21:31;;;;;;;2.93;2.80;;;14.20;99.90;;;;;;5048773;28;20204;-73
2022/06/01 06:24:02;;;;;;;4.40;2.80;;;14.30;99.90;;;;;;5048278;28;20227;-72
2022/06/01 06:26:30;;;;;;;2.63;2.53;;;14.30;99.90;;;;;;5043189;28;20248;-73
2022/06/01 06:28:57;;;;;;;2.23;2.13;;;14.40;99.90;;;;;;5031928;28;20200;-73
2022/06/01 06:31:24;;;;;;;2.60;2.40;;;14.50;99.90;;;;;;5037433;28;20209;-72
2022/06/01 06:33:50;;;;;;;2.17;2.00;;;14.40;99.90;;;;;;5029928;28;20209;-72
2022/06/01 06:36:17;;;;;;;2.30;2.20;;;14.30;99.90;;;;;;5028424;28;20221;-73
2022/06/01 06:38:44;;;;;;;2.00;1.90;;;14.40;99.90;;;;;;5030013;28;20647;-72
2022/06/01 06:41:11;;;;;;;2.20;1.97;;;14.50;99.90;;;;;;5045181;28;20236;-73
2022/06/01 06:43:40;;;;;;;2.40;2.20;;;14.60;99.90;;;;;;5043907;28;20306;-72
2022/06/01 06:46:10;;;;;;;2.30;2.20;;;14.70;99.90;;;;;;5031319;28;20243;-73
2022/06/01 06:48:37;;;;;;;2.40;2.30;;;14.70;99.90;;;;;;5044108;28;20212;-72
2022/06/01 06:51:06;;;;;;;2.40;2.30;;;14.60;99.90;;;;;;5048414;28;20215;-73
2022/06/01 06:53:33;;;;;;;2.27;2.17;;;14.60;99.90;;;;;;5047933;28;20204;-73
2022/06/01 06:56:00;;;;;;;2.33;2.23;;;14.70;99.90;;;;;;5048219;28;20266;-73
2022/06/01 06:58:27;;;;;;;2.83;2.40;;;14.80;99.90;;;;;;5048085;28;20215;-73
2022/06/01 07:00:55;;;;;;;3.73;3.53;;;14.90;99.90;;;;;;5031394;28;20255;-73
2022/06/01 07:03:21;;;;;;;2.90;2.70;;;15.00;99.90;;;;;;5047238;28;20223;-73
2022/06/01 07:08:33;;;;;;;2.47;2.37;;;15.20;99.90;;;;;;5027513;28;20204;-72
2022/06/01 07:11:00;;;;;;;2.50;2.40;;;15.20;99.90;;;;;;5040183;28;20254;-72
2022/06/01 07:13:28;;;;;;;3.13;2.50;;;15.20;99.90;;;;;;5044571;28;20200;-72
2022/06/01 07:16:11;;;;;;;2.30;2.20;;;15.40;99.90;;;;;;5027617;28;20201;-73
2022/06/01 07:18:39;;;;;;;2.87;2.60;;;15.40;99.90;;;;;;5029485;28;20197;-73
2022/06/01 07:21:06;;;;;;;2.77;2.57;;;15.50;99.90;;;;;;5043605;28;20230;-73
2022/06/01 07:23:34;;;;;;;2.60;2.50;;;15.60;99.90;;;;;;5045081;28;20565;-73
2022/06/01 07:26:03;;;;;;;2.70;2.50;;;15.50;99.90;;;;;;5047357;28;20232;-73
2022/06/01 07:28:29;;;;;;;3.63;2.70;;;15.50;99.90;;;;;;5047649;28;20208;-73
2022/06/01 07:30:57;;;;;;;2.53;2.43;;;15.50;99.90;;;;;;5047381;28;20208;-73
2022/06/01 07:33:28;;;;;;;3.00;2.80;;;15.60;99.90;;;;;;5047389;28;21164;-73
2022/06/01 07:35:55;;;;;;;2.60;2.50;;;15.60;99.90;;;;;;5039982;28;20204;-73
2022/06/01 07:43:51;;;;;;;3.50;3.20;;;15.60;99.90;;;;;;5017940;28;20204;-73
2022/06/01 07:46:17;;;;;;;4.10;3.63;;;15.70;99.90;;;;;;5027060;28;20257;-73
2022/06/01 07:48:46;;;;;;;3.17;2.97;;;15.80;99.90;;;;;;5043882;28;20208;-73
2022/06/01 07:51:14;;;;;;;4.70;2.60;;;15.70;99.90;;;;;;5047143;28;20216;-73
2022/06/01 07:53:40;;;;;;;2.57;2.47;;;15.80;99.90;;;;;;5046707;28;20204;-73
2022/06/01 07:56:08;;;;;;;2.60;2.50;;;15.90;99.90;;;;;;5047023;28;20212;-73
2022/06/01 07:58:36;;;;;;;3.47;3.17;;;16.00;99.90;;;;;;5046816;28;20208;-73
2022/06/01 08:01:05;;;;;;;3.30;3.10;;;16.00;99.90;;;;;;5046397;28;20678;-73
2022/06/01 08:03:32;;;;;;;3.43;3.13;;;15.80;99.90;;;;;;5045335;28;20313;-72
2022/06/01 08:06:01;;;;;;;3.00;2.83;;;15.80;99.90;;;;;;5046633;28;20293;-73
2022/06/01 08:08:31;;;;;;;3.00;2.80;;;15.80;99.90;;;;;;5046321;28;20208;-73
2022/06/01 08:10:59;;;;;;;3.53;2.97;;;15.90;99.90;;;;;;5046552;28;21018;-72
2022/06/01 08:13:25;;;;;;;3.10;2.87;;;16.00;99.90;;;;;;5044982;28;20227;-73
2022/06/01 08:15:52;;;;;;;2.77;2.60;;;16.10;99.90;;;;;;5045932;28;20212;-73
2022/06/01 08:18:22;;;;;;;2.63;2.53;;;16.10;99.90;;;;;;5039536;28;20208;-73
2022/06/01 08:20:50;;;;;;;2.40;2.20;;;16.10;99.90;;;;;;5046735;28;20242;-73
2022/06/01 08:23:18;;;;;;;2.07;1.90;;;16.10;99.90;;;;;;5046375;28;20273;-72
2022/06/01 08:25:45;;;;;;;2.17;2.07;;;16.10;99.90;;;;;;5046627;28;20240;-72
2022/06/01 08:28:12;;;;;;;3.07;2.20;;;16.10;99.90;;;;;;5046475;28;20209;-73
2022/06/01 08:30:40;;;;;;;2.97;2.10;;;16.00;99.90;;;;;;5046215;28;20204;-73
2022/06/01 08:33:07;;;;;;;2.17;2.07;;;16.00;99.90;;;;;;5035870;28;20216;-73
2022/06/01 08:35:36;;;;;;;2.67;2.33;;;15.90;99.90;;;;;;5026647;28;20648;-73
2022/06/01 08:38:03;;;;;;;2.67;2.50;;;15.90;99.90;;;;;;5026336;28;20642;-72
2022/06/01 08:40:34;;;;;;;2.37;2.17;;;16.00;99.90;;;;;;5043678;28;20208;-73
2022/06/01 08:43:05;;;;;;;4.40;2.20;;;16.00;99.90;;;;;;5046080;28;20631;-73
2022/06/01 08:45:32;;;;;;;2.60;2.40;;;16.10;99.90;;;;;;5026032;28;20228;-73
2022/06/01 08:48:00;;;;;;;3.77;2.37;;;16.10;99.90;;;;;;5035442;28;20204;-73
2022/06/01 08:50:30;;;;;;;2.40;2.20;;;16.10;99.90;;;;;;5046400;28;20235;-72
2022/06/01 08:53:00;;;;;;;2.80;2.60;;;16.20;99.90;;;;;;5048741;28;20212;-73
2022/06/01 08:55:38;;;;;;;2.53;2.30;;;16.30;99.90;;;;;;5050454;28;20258;-73
2022/06/01 08:58:11;;;;;;;2.50;2.40;;;16.40;99.90;;;;;;5049973;28;20713;-73
2022/06/01 09:00:51;;;;;;;2.60;2.40;;;16.40;99.90;;;;;;5031991;28;20259;-73
2022/06/01 09:03:27;;;;;;;1.83;1.73;;;16.50;99.90;;;;;;5030343;28;20692;-73
2022/06/01 09:06:00;;;;;;;2.10;2.00;;;16.60;99.90;;;;;;5030193;28;20231;-73
2022/06/01 09:08:35;;;;;;;2.20;2.10;;;16.80;99.90;;;;;;5029948;28;20201;-73
2022/06/01 09:11:08;;;;;;;2.30;2.07;;;16.80;99.90;;;;;;5042936;28;20200;-73
2022/06/01 09:13:45;;;;;;;1.93;1.83;;;16.90;99.90;;;;;;5050247;28;20570;-73
2022/06/01 09:16:17;;;;;;;2.00;1.90;;;17.10;99.90;;;;;;5036237;28;20219;-73
2022/06/01 09:18:48;;;;;;;1.77;1.67;;;17.20;99.90;;;;;;5046721;28;20217;-73
2022/06/01 09:24:26;;;;;;;2.07;1.97;;;17.30;99.90;;;;;;4987591;28;20647;-73
2022/06/01 09:26:58;;;;;;;2.00;1.90;;;17.20;99.90;;;;;;4987702;28;20795;-73
2022/06/01 09:29:28;;;;;;;2.03;1.90;;;17.20;99.90;;;;;;5024642;28;20212;-73
2022/06/01 09:32:01;;;;;;;2.33;2.23;;;17.10;99.90;;;;;;5049394;28;20671;-73
2022/06/01 09:34:36;;;;;;;2.50;2.30;;;17.20;99.90;;;;;;5049765;28;20235;-72
2022/06/01 09:37:06;;;;;;;2.83;2.00;;;17.30;99.90;;;;;;5049586;28;20293;-73
2022/06/01 09:39:34;;;;;;;2.70;2.10;;;17.40;99.90;;;;;;5049390;28;20196;-73
2022/06/01 09:42:20;;;;;;;1.97;1.80;;;17.60;99.90;;;;;;5049075;28;20240;-73
2022/06/01 09:44:49;;;;;;;3.57;2.07;;;17.50;99.90;;;;;;5049528;28;20246;-73
2022/06/01 09:47:34;;;;;;;2.50;2.30;;;17.40;99.90;;;;;;5048708;28;20300;-73
2022/06/01 09:50:03;;;;;;;4.50;2.20;;;17.30;99.90;;;;;;5028949;28;20597;-73
2022/06/01 09:52:32;;;;;;;2.60;2.40;;;17.30;99.90;;;;;;5029220;28;20231;-73
2022/06/01 09:55:10;;;;;;;2.20;2.00;;;17.30;99.90;;;;;;5028993;28;20208;-73
2022/06/01 09:57:38;;;;;;;2.53;2.10;;;17.50;99.90;;;;;;5029355;28;20285;-73
2022/06/01 10:06:16;;;;;;;1.97;1.87;;;17.70;99.90;;;;;;5028846;28;20307;-73
2022/06/01 10:08:54;;;;;;;6.63;6.10;;;17.70;99.90;;;;;;5028768;28;20193;-73
2022/06/01 10:11:28;;;;;;;6.40;5.90;;;17.80;99.90;;;;;;5029103;28;20205;-73
2022/06/01 10:14:05;;;;;;;2.43;2.33;;;18.10;99.90;;;;;;5028722;28;20196;-73
2022/06/01 10:16:41;;;;;;;1.80;1.70;;;18.40;99.90;;;;;;5028613;28;20196;-73
2022/06/01 10:19:12;;;;;;;2.10;1.90;;;18.60;99.90;;;;;;5048680;28;20233;-73
2022/06/01 10:21:48;;;;;;;3.40;2.70;;;18.40;99.90;;;;;;5048902;28;20204;-73
2022/06/01 10:24:20;;;;;;;2.33;2.13;;;18.30;99.90;;;;;;5048689;28;20199;-73
2022/06/01 10:26:52;;;;;;;2.50;2.30;;;18.50;99.90;;;;;;5028740;28;20658;-73
2022/06/01 10:29:25;;;;;;;2.37;2.10;;;18.50;99.90;;;;;;5028622;28;20205;-73
2022/06/01 10:31:56;;;;;;;1.93;1.83;;;18.50;99.80;;;;;;5028621;28;20651;-73
2022/06/01 10:34:36;;;;;;;2.03;1.93;;;18.60;99.30;;;;;;5028960;28;20255;-73
2022/06/01 10:37:11;;;;;;;2.30;2.20;;;18.80;99.30;;;;;;5028498;28;20579;-73
2022/06/01 10:39:43;;;;;;;1.83;1.73;;;18.90;99.00;;;;;;5028627;28;20196;-73
2022/06/01 10:42:17;;;;;;;3.40;2.40;;;19.00;99.40;;;;;;5028045;28;20665;-73
2022/06/01 10:44:52;;;;;;;2.13;1.77;;;18.90;99.00;;;;;;5040018;28;20224;-73
2022/06/01 10:47:28;;;;;;;2.37;1.97;;;19.00;98.40;;;;;;5037728;28;20744;-73
2022/06/01 10:50:01;;;;;;;2.43;2.07;;;19.20;98.90;;;;;;5028558;28;20200;-73
2022/06/01 10:52:31;;;;;;;2.60;2.40;;;19.30;99.00;;;;;;5028471;28;20195;-73
2022/06/01 10:55:07;;;;;;;2.40;2.30;;;19.30;98.50;;;;;;5028094;28;20201;-73
2022/06/01 10:57:38;;;;;;;2.27;2.17;;;19.40;98.40;;;;;;5028688;28;20223;-73
2022/06/01 11:00:10;;;;;;;2.07;1.97;;;19.30;98.30;;;;;;5028223;28;20204;-73
2022/06/01 11:03:09;;;;;;;2.97;2.70;;;19.10;98.90;;;;;;5028255;28;20212;-73
2022/06/01 11:05:45;;;;;;;2.50;2.30;;;18.90;98.80;;;;;;5028192;28;20282;-73
2022/06/01 11:08:35;;;;;;;2.43;2.33;;;18.70;99.00;;;;;;5037039;28;20307;-73
2022/06/01 11:11:12;;;;;;;2.43;2.33;;;18.70;99.60;;;;;;5047719;28;20192;-73
2022/06/01 11:13:57;;;;;;;4.70;2.30;;;18.70;99.40;;;;;;5046603;28;20728;-73
2022/06/01 11:16:40;;;;;;;3.20;3.00;;;18.70;99.10;;;;;;5027166;28;20185;-72
2022/06/01 11:19:17;;;;;;;2.53;2.37;;;18.90;99.30;;;;;;5047258;28;20721;-73
2022/06/01 11:21:50;;;;;;;2.30;2.20;;;19.00;99.30;;;;;;5046987;28;20241;-74
2022/06/01 11:24:38;;;;;;;2.57;2.37;;;19.30;99.30;;;;;;5047177;28;20227;-73
2022/06/01 11:27:20;;;;;;;7.70;2.60;;;19.60;98.60;;;;;;5047566;28;20254;-73
2022/06/01 11:30:01;;;;;;;3.17;2.00;;;19.50;98.20;;;;;;5048034;28;20204;-73
2022/06/01 11:32:36;;;;;;;2.90;2.70;;;19.60;98.80;;;;;;5047627;28;20189;-73
2022/06/01 11:35:08;;;;;;;5.07;3.00;;;19.90;99.30;;;;;;5047648;28;20246;-73
2022/06/01 11:37:42;;;;;;;2.23;2.10;;;20.00;97.40;;;;;;5047401;28;20250;-73
2022/06/01 11:40:13;;;;;;;2.60;2.20;;;20.00;97.10;;;;;;5047211;28;20620;-73
2022/06/01 11:42:44;;;;;;;2.17;2.07;;;20.00;97.50;;;;;;5046903;28;20825;-73
2022/06/01 11:45:15;;;;;;;2.40;2.20;;;20.10;97.10;;;;;;5045149;28;20193;-73
2022/06/01 11:47:46;;;;;;;2.80;2.50;;;19.90;97.30;;;;;;5047275;28;20212;-73
2022/06/01 11:50:18;;;;;;;1.90;1.80;;;19.80;97.30;;;;;;5047307;28;20250;-73
2022/06/01 11:52:46;;;;;;;1.60;1.50;;;19.90;97.60;;;;;;5047216;28;20200;-73
2022/06/01 11:55:31;;;;;;;1.90;1.80;;;20.10;97.90;;;;;;5046164;28;20204;-73
2022/06/01 11:58:07;;;;;;;1.83;1.73;;;20.10;98.30;;;;;;5046640;28;20673;-73
2022/06/01 12:00:37;;;;;;;1.43;1.33;;;19.80;98.00;;;;;;5047298;28;20246;-73
2022/06/01 12:03:36;;;;;;;2.90;1.83;;;19.80;98.30;;;;;;5046979;28;20580;-73
2022/06/01 12:06:09;;;;;;;1.47;1.40;;;20.00;98.60;;;;;;5027337;28;20217;-73
2022/06/01 12:08:41;;;;;;;1.80;1.70;;;20.00;98.20;;;;;;5027617;28;20208;-74
2022/06/01 12:11:15;;;;;;;1.60;1.50;;;20.20;98.30;;;;;;5027547;28;20201;-74
2022/06/01 12:13:54;;;;;;;2.63;1.80;;;20.30;98.20;;;;;;5026638;28;20651;-74
2022/06/01 12:16:24;;;;;;;2.37;1.57;;;20.30;97.80;;;;;;5031419;28;20200;-74
2022/06/01 12:19:01;;;;;;;1.70;1.60;;;19.90;98.20;;;;;;5036893;28;20204;-74
2022/06/01 12:21:36;;;;;;;2.03;1.80;;;19.70;98.90;;;;;;5047204;28;20200;-74
2022/06/01 12:30:02;;;;;;;2.03;1.30;;;19.30;98.60;;;;;;5044410;28;20254;-73
2022/06/01 12:32:32;;;;;;;1.47;1.33;;;19.10;98.70;;;;;;5025236;28;20209;-73
2022/06/01 12:35:14;;;;;;;4.10;1.83;;;18.80;98.90;;;;;;5024584;28;20209;-73
2022/06/01 12:37:48;;;;;;;2.27;1.33;;;18.60;99.70;;;;;;5024628;28;20228;-73
2022/06/01 12:40:20;;;;;;;1.60;1.50;;;18.20;99.90;;;;;;5024614;28;20204;-73
2022/06/01 12:42:53;;;;;;;1.40;1.30;;;18.10;99.90;;;;;;5024871;28;20239;-72
2022/06/01 12:45:22;;;;;;;1.93;1.43;;;18.00;99.90;;;;;;5024422;28;20727;-73
2022/06/01 12:47:57;;;;;;;1.30;1.23;;;17.80;99.90;;;;;;5033391;28;20265;-73
2022/06/01 12:50:28;;;;;;;1.40;1.30;;;17.80;99.90;;;;;;5044428;28;20223;-73
2022/06/01 12:53:17;;;;;;;1.30;1.20;;;17.70;99.90;;;;;;5024833;28;20236;-73
2022/06/01 12:55:44;;;;;;;1.13;1.13;;;17.60;99.90;;;;;;5025525;28;20197;-73
2022/06/01 12:58:20;;;;;;;1.03;1.03;;;17.70;99.90;;;;;;5023856;28;20976;-73
2022/06/01 13:00:50;;;;;;;1.67;1.23;;;17.80;99.90;;;;;;5044270;28;20709;-73
2022/06/01 13:03:20;;;;;;;1.00;1.00;;;17.90;99.90;;;;;;5044053;28;20192;-73
2022/06/01 13:05:52;;;;;;;1.27;1.27;;;18.40;99.90;;;;;;5044676;28;20220;-73
2022/06/01 13:08:21;;;;;;;4.80;4.00;;;18.60;99.90;;;;;;5026688;28;20243;-74
2022/06/01 13:10:48;;;;;;;2.30;2.20;;;19.00;99.90;;;;;;5025265;28;20212;-74
2022/06/01 13:13:18;;;;;;;1.77;1.67;;;19.50;99.90;;;;;;5030960;28;20212;-74
2022/06/01 13:15:55;;;;;;;1.40;1.40;;;20.00;99.90;;;;;;5044297;28;20212;-73
2022/06/01 13:18:27;;;;;;;1.60;1.50;;;20.30;99.90;;;;;;5037805;28;20208;-73
2022/06/01 13:21:03;;;;;;;1.40;1.30;;;20.50;99.90;;;;;;5044096;28;20230;-73
2022/06/01 13:23:38;;;;;;;1.63;1.53;;;20.60;99.90;;;;;;5044246;28;20203;-73
2022/06/01 13:26:07;;;;;;;3.53;1.37;;;20.40;99.90;;;;;;5044111;28;20273;-73
2022/06/01 13:28:34;;;;;;;1.60;1.50;;;20.10;99.90;;;;;;5044234;28;20212;-73
2022/06/01 13:31:06;;;;;;;3.10;1.60;;;19.90;99.90;;;;;;5039293;28;20205;-73
2022/06/01 13:33:39;;;;;;;2.23;1.73;;;19.70;99.90;;;;;;5024360;28;20231;-73